Airfield :
LOGIN :

Register | Disclaimer

   EN    FR    IT 

 










Legend :    VFR   Marginal VFR   IFR   Intensive IFR   Very Intensive IFR
Visi :
Ceiling :
>= 8 km
>= 3000ft
5 to 8 km
1000 to 3000 ft
1500m to 5 km
500 to 1000 ft
800 to 1500m
200 to 500 ft
< 800m
< 200 ft
Symbols :   Thunderstorms  Fog  Heavy snow  Heavy precipitations  Wind > 20 kt
SIGMETs :     Misc.  Thunderstorms  Icing  Turbulence  Mountain Waves  Volcanic Ashes







- Airport Elevation : 527 ft
- IATA code : DBV


LDDU - Dubrovnik

CURRENT METAR :
  • 270730Z 13012KT 100V180 9999 RA FEW015 BKN035 16/15 Q1014 TEMPO 4000

EXPIRED METARs :
  • 270700Z 15006KT 120V190 9999 -RA FEW035 SCT055 17/14 Q1013 BECMG 12015KT TEMPO RA
  • 270630Z 08004KT 010V140 9999 -RA FEW040 SCT055 17/14 Q1013 BECMG 12015KT
  • 270600Z 06006KT 020V130 9999 -RA FEW040 SCT055 16/13 Q1013 BECMG 12015KT
  • 270530Z 07010KT 040V110 9999 -RA SCT055 15/13 Q1013 BECMG 12015KT
  • 270500Z 10014KT 9999 RA FEW050 15/14 Q1013 BECMG NSW

TAF TAF LDDU
Valid from the 27 at 06:00 until the 28 at 06:00 UTC


270525Z 2706/2806 12015KT 9999 BKN020 TX18/2715Z TN15/2706Z
TEMPO 2706/2718 3000 RA BKN012
PROB40
TEMPO 2721/2806 VRB15G25KT 3000 TSRA FEW015CB BKN020
No reported NOTAMs for that airfield.
1 SIGMET reported for the Zagreb FIR (LDZO) :
 
Embedded thunderstorms
LDZO SIGMET 1 VALID 270636/270800 LDZA
LDZO ZAGREB FIR EMBD TS OBS WI N4236 E01559 - N4252 E01620 - N4208 E01749 - N4148 E01734 - N4219 E01614 - N4236 E01559 TOP FL320 STNR INTSF=



MET'MAP, your aeronautical weather chart ! - Copyright ORBIFLY December 2007 - Disclaimer

ORBIFLY MET'MAP TEAM :

Programming & Development : Alexandra Zaïnal
Concept & Development : Baudouin d'Aumeries
Co-Development & Prog : Marc-Olivier Méhu
Technical & hardware support : Manuel Goepfert

Contact : metmap@orbifly.com




SOURCES & CREDITS :

   NOAA